createdAt,value
2022-08-08T00:00:54.303Z,22.15
2022-08-08T00:00:55.782Z,22.19
2022-08-08T00:02:03.093Z,22.04
2022-08-08T00:02:33.776Z,22.18
2022-08-08T00:03:20.221Z,22.17
2022-08-08T00:04:17.449Z,22.21
2022-08-08T00:05:12.748Z,21.89
2022-08-08T00:06:03.908Z,21.59
2022-08-08T00:06:46.439Z,21.59
2022-08-08T00:08:01.822Z,21.67
2022-08-08T00:08:49.583Z,21.72
2022-08-08T00:09:34.519Z,21.85
2022-08-08T00:10:28.149Z,21.93
2022-08-08T00:11:16.344Z,21.95
2022-08-08T00:12:09.518Z,21.89
2022-08-08T00:12:56.263Z,21.92
2022-08-08T00:14:15.524Z,21.94
2022-08-08T00:15:03.278Z,21.78
2022-08-08T00:15:56.896Z,21.76
2022-08-08T00:16:43.725Z,21.70
2022-08-08T00:17:23.967Z,21.85
2022-08-08T00:18:03.418Z,21.87
2022-08-08T00:18:42.119Z,21.86
2022-08-08T00:19:22.917Z,21.86
2022-08-08T00:20:07.120Z,21.83
2022-08-08T00:20:49.616Z,21.88
2022-08-08T00:21:43.441Z,21.89
2022-08-08T00:22:24.501Z,21.81
2022-08-08T00:23:08.755Z,21.86
2022-08-08T00:23:47.665Z,21.86
2022-08-08T00:24:36.881Z,21.88
2022-08-08T00:25:28.707Z,21.93
2022-08-08T00:26:29.748Z,21.93
2022-08-08T00:27:07.798Z,21.76
2022-08-08T00:27:42.306Z,21.72
2022-08-08T00:28:34.075Z,21.72
2022-08-08T00:29:44.451Z,21.69
2022-08-08T00:30:15.761Z,21.72
2022-08-08T00:31:00.690Z,21.68
2022-08-08T00:32:20.086Z,21.53
2022-08-08T00:32:42.775Z,21.60
2022-08-08T00:33:18.860Z,21.65
2022-08-08T00:34:46.377Z,21.60
2022-08-08T00:35:34.354Z,21.62
2022-08-08T00:36:15.264Z,21.62
2022-08-08T00:37:03.392Z,21.54
2022-08-08T00:38:07.046Z,21.41
2022-08-08T00:38:59.328Z,21.60
2022-08-08T00:41:07.178Z,21.61
2022-08-08T00:41:09.995Z,21.66
2022-08-08T00:41:54.902Z,21.73
2022-08-08T00:43:11.845Z,21.65
2022-08-08T00:44:16.878Z,21.66
2022-08-08T00:45:32.574Z,21.65
2022-08-08T00:46:25.669Z,21.63
2022-08-08T00:47:25.122Z,21.68
2022-08-08T00:48:30.327Z,21.71
2022-08-08T00:49:22.480Z,21.70
2022-08-08T00:50:28.056Z,21.56
2022-08-08T00:51:09.704Z,21.54
2022-08-08T00:52:19.925Z,21.53
2022-08-08T00:53:16.742Z,21.41
2022-08-08T00:54:13.685Z,21.51
2022-08-08T00:55:06.975Z,21.54
2022-08-08T00:56:00.676Z,21.53
2022-08-08T00:56:46.275Z,21.55
2022-08-08T00:57:41.346Z,21.55
2022-08-08T00:58:36.386Z,21.51
2022-08-08T00:59:44.069Z,21.55
2022-08-08T01:00:35.886Z,21.61
2022-08-08T01:01:39.927Z,21.70
2022-08-08T01:03:18.190Z,21.66
2022-08-08T01:04:01.223Z,21.69
2022-08-08T01:05:29.208Z,21.70
2022-08-08T01:06:27.756Z,21.63
2022-08-08T01:07:34.555Z,21.49
2022-08-08T01:08:42.348Z,21.54
2022-08-08T01:09:43.626Z,21.64
2022-08-08T01:10:51.060Z,21.77
2022-08-08T01:11:59.378Z,21.82
2022-08-08T01:13:02.074Z,21.70
2022-08-08T01:13:58.687Z,21.57
2022-08-08T01:15:00.751Z,21.66
2022-08-08T01:16:06.029Z,21.76
2022-08-08T01:16:46.133Z,21.88
2022-08-08T01:17:20.003Z,21.91
2022-08-08T01:18:53.764Z,21.88
2022-08-08T01:20:13.147Z,21.89
2022-08-08T01:21:04.193Z,21.99
2022-08-08T01:22:12.578Z,21.87
2022-08-08T01:24:05.434Z,21.80
2022-08-08T01:24:35.154Z,21.90
2022-08-08T01:25:40.898Z,21.72
2022-08-08T01:27:02.782Z,21.78
2022-08-08T01:28:00.086Z,21.82
2022-08-08T01:29:05.666Z,21.76
2022-08-08T01:29:59.828Z,21.71
2022-08-08T01:32:05.793Z,21.79
2022-08-08T01:32:21.222Z,21.80
2022-08-08T01:32:59.827Z,21.78
2022-08-08T01:33:33.885Z,21.73
2022-08-08T01:34:29.064Z,21.75
2022-08-08T01:35:17.104Z,21.77
2022-08-08T01:36:22.987Z,21.76
2022-08-08T01:37:51.091Z,21.81
2022-08-08T01:38:43.650Z,21.95
2022-08-08T01:39:41.942Z,21.96
2022-08-08T01:40:15.905Z,21.86
2022-08-08T01:41:05.121Z,21.80
2022-08-08T01:42:35.312Z,21.75
2022-08-08T01:43:39.076Z,21.75
2022-08-08T01:44:50.730Z,21.75
2022-08-08T01:46:01.901Z,21.73
2022-08-08T01:46:52.895Z,21.82
2022-08-08T01:48:16.489Z,21.85
2022-08-08T01:49:37.592Z,21.72
2022-08-08T01:50:44.602Z,21.85
2022-08-08T01:52:21.049Z,21.95
2022-08-08T01:55:17.136Z,21.97
2022-08-08T01:55:25.651Z,22.07
2022-08-08T01:56:28.730Z,22.10
2022-08-08T01:57:10.716Z,22.15
2022-08-08T01:58:12.679Z,22.12
2022-08-08T01:58:55.147Z,21.98
2022-08-08T02:00:01.670Z,22.06
2022-08-08T02:01:15.698Z,22.07
2022-08-08T02:02:03.018Z,22.01
2022-08-08T02:03:56.121Z,22.02
2022-08-08T02:04:31.932Z,21.94
2022-08-08T02:05:19.255Z,22.04
2022-08-08T02:05:58.892Z,22.04
2022-08-08T02:07:15.328Z,22.07
2022-08-08T02:08:09.014Z,22.10
2022-08-08T02:08:54.267Z,21.86
2022-08-08T02:10:02.799Z,21.89
2022-08-08T02:10:44.597Z,21.86
2022-08-08T02:11:52.749Z,21.95
2022-08-08T02:12:31.185Z,21.96
2022-08-08T02:13:52.813Z,21.98
2022-08-08T02:14:23.475Z,21.99
2022-08-08T02:15:11.455Z,22.11
2022-08-08T02:16:00.412Z,22.17
2022-08-08T02:17:17.985Z,22.13
2022-08-08T02:18:17.216Z,22.22
2022-08-08T02:19:41.772Z,22.27
2022-08-08T02:21:00.697Z,22.18
2022-08-08T02:21:45.701Z,22.15
2022-08-08T02:22:54.946Z,22.13
2022-08-08T02:23:36.192Z,22.18
2022-08-08T02:24:17.982Z,22.20
2022-08-08T02:24:58.750Z,22.24
2022-08-08T02:25:48.438Z,22.13
2022-08-08T02:26:49.933Z,22.13
2022-08-08T02:27:42.475Z,22.17
2022-08-08T02:28:38.460Z,22.20
2022-08-08T02:29:46.735Z,22.21
2022-08-08T02:30:58.128Z,22.20
2022-08-08T02:32:00.939Z,21.96
2022-08-08T02:32:51.645Z,21.95
2022-08-08T02:34:08.792Z,21.94
2022-08-08T02:35:08.280Z,21.80
2022-08-08T02:36:16.321Z,22.01
2022-08-08T02:36:51.719Z,22.02
2022-08-08T02:37:52.168Z,22.01
2022-08-08T02:39:40.978Z,22.08
2022-08-08T02:40:16.160Z,21.91
2022-08-08T02:41:59.569Z,21.73
2022-08-08T02:42:41.946Z,21.72
2022-08-08T02:44:39.319Z,21.44
2022-08-08T02:44:49.826Z,21.41
2022-08-08T02:46:15.829Z,21.51
2022-08-08T02:47:11.765Z,21.72
2022-08-08T02:47:55.893Z,21.85
2022-08-08T02:48:59.696Z,21.95
2022-08-08T02:49:51.048Z,21.88
2022-08-08T02:50:30.087Z,21.89
2022-08-08T02:51:30.482Z,21.94
2022-08-08T02:52:41.179Z,21.98
2022-08-08T02:53:28.733Z,22.13
2022-08-08T02:54:03.089Z,22.09
2022-08-08T02:55:10.241Z,22.05
2022-08-08T02:56:27.828Z,22.08
2022-08-08T02:57:40.533Z,22.00
2022-08-08T02:58:54.152Z,22.08
2022-08-08T03:00:29.736Z,22.15
2022-08-08T03:01:39.982Z,22.10
2022-08-08T03:02:51.873Z,21.81
2022-08-08T03:05:03.996Z,21.80
2022-08-08T03:05:05.204Z,21.80
2022-08-08T03:06:24.148Z,21.81
2022-08-08T03:07:41.830Z,21.82
2022-08-08T03:08:54.021Z,21.79
2022-08-08T03:10:06.409Z,21.76
2022-08-08T03:11:25.817Z,21.71
2022-08-08T03:13:01.930Z,21.70
2022-08-08T03:15:59.348Z,21.59
2022-08-08T03:16:09.543Z,21.62
2022-08-08T03:16:48.495Z,21.65
2022-08-08T03:17:39.499Z,21.65
2022-08-08T03:18:32.017Z,21.49
2022-08-08T03:19:26.003Z,21.56
2022-08-08T03:20:11.558Z,21.47
2022-08-08T03:20:52.500Z,21.48
2022-08-08T03:21:26.925Z,21.51
2022-08-08T03:21:59.975Z,21.51
2022-08-08T03:22:38.908Z,21.56
2022-08-08T03:23:56.639Z,21.58
2022-08-08T03:24:23.045Z,21.66
2022-08-08T03:25:01.418Z,21.63
2022-08-08T03:25:36.966Z,21.52
2022-08-08T03:26:09.649Z,21.55
2022-08-08T03:26:48.429Z,21.52
2022-08-08T03:27:36.044Z,21.51
2022-08-08T03:28:37.564Z,21.52
2022-08-08T03:29:27.057Z,21.41
2022-08-08T03:30:19.036Z,21.51
2022-08-08T03:31:22.122Z,21.66
2022-08-08T03:32:06.207Z,21.73
2022-08-08T03:33:07.472Z,21.75
2022-08-08T03:33:57.024Z,21.61
2022-08-08T03:34:33.900Z,21.54
2022-08-08T03:35:06.523Z,21.54
2022-08-08T03:35:42.183Z,21.54
2022-08-08T03:36:20.165Z,21.63
2022-08-08T03:37:00.717Z,21.68
2022-08-08T03:38:54.775Z,21.74
2022-08-08T03:38:57.650Z,21.77
2022-08-08T03:39:28.333Z,21.83
2022-08-08T03:40:03.558Z,21.79
2022-08-08T03:40:37.063Z,21.84
2022-08-08T03:42:11.521Z,21.82
2022-08-08T03:42:27.198Z,21.82
2022-08-08T03:42:53.533Z,21.80
2022-08-08T03:43:31.547Z,21.64
2022-08-08T03:44:10.548Z,21.63
2022-08-08T03:44:52.076Z,21.58
2022-08-08T03:46:05.194Z,21.54
2022-08-08T03:46:19.205Z,21.58
2022-08-08T03:46:57.481Z,21.49
2022-08-08T03:47:45.512Z,21.55
2022-08-08T03:48:21.134Z,21.47
2022-08-08T03:49:57.966Z,21.45
2022-08-08T03:50:20.302Z,21.39
2022-08-08T03:50:57.256Z,21.34
2022-08-08T03:51:47.053Z,21.33
2022-08-08T03:52:24.575Z,21.38
2022-08-08T03:53:14.455Z,21.31
2022-08-08T03:53:56.073Z,21.27
2022-08-08T03:54:41.651Z,21.16
2022-08-08T03:55:56.231Z,21.25
2022-08-08T03:56:32.124Z,21.42
2022-08-08T03:58:34.782Z,21.47
2022-08-08T03:58:34.998Z,21.41
2022-08-08T03:58:56.775Z,21.48
2022-08-08T03:59:30.648Z,21.54
2022-08-08T04:00:18.601Z,21.57
2022-08-08T04:01:20.507Z,21.57
2022-08-08T04:02:15.970Z,21.57
2022-08-08T04:02:47.230Z,21.60
2022-08-08T04:03:25.965Z,21.51
2022-08-08T04:04:20.288Z,21.58
2022-08-08T04:04:55.557Z,21.60
2022-08-08T04:05:32.618Z,21.68
2022-08-08T04:06:08.344Z,21.68
2022-08-08T04:06:40.517Z,21.67
2022-08-08T04:07:16.308Z,21.71
2022-08-08T04:07:48.747Z,21.65
2022-08-08T04:08:33.823Z,21.54
2022-08-08T04:09:08.797Z,21.52
2022-08-08T04:10:03.052Z,21.52
2022-08-08T04:10:37.921Z,21.47
2022-08-08T04:11:17.709Z,21.48
2022-08-08T04:12:00.429Z,21.53
2022-08-08T04:12:35.184Z,21.47
2022-08-08T04:13:18.189Z,21.52
2022-08-08T04:14:03.705Z,21.58
2022-08-08T04:14:45.305Z,21.51
2022-08-08T04:15:18.197Z,21.48
2022-08-08T04:16:05.363Z,21.45
2022-08-08T04:16:41.117Z,21.55
2022-08-08T04:17:22.761Z,21.67
2022-08-08T04:18:06.299Z,21.72
2022-08-08T04:18:44.798Z,21.63
2022-08-08T04:19:23.572Z,21.62
2022-08-08T04:19:58.818Z,21.63
2022-08-08T04:20:30.745Z,21.62
2022-08-08T04:21:02.793Z,21.66
2022-08-08T04:21:41.458Z,21.64
2022-08-08T04:22:18.020Z,21.68
2022-08-08T04:22:58.221Z,21.74
2022-08-08T04:23:33.206Z,21.73
2022-08-08T04:24:29.536Z,21.72
2022-08-08T04:25:04.369Z,21.67
2022-08-08T04:25:38.426Z,21.75
2022-08-08T04:26:11.009Z,21.86
2022-08-08T04:26:57.338Z,21.78
2022-08-08T04:28:02.899Z,21.79
2022-08-08T04:28:37.240Z,21.83
2022-08-08T04:29:12.761Z,21.89
2022-08-08T04:29:55.464Z,21.81
2022-08-08T04:30:36.681Z,21.76
2022-08-08T04:31:30.653Z,21.68
2022-08-08T04:32:10.426Z,21.68
2022-08-08T04:32:47.897Z,21.67
2022-08-08T04:33:20.359Z,21.72
2022-08-08T04:33:52.308Z,21.68
2022-08-08T04:34:24.344Z,21.67
2022-08-08T04:35:01.292Z,21.55
2022-08-08T04:35:39.867Z,21.58
2022-08-08T04:36:14.098Z,21.71
2022-08-08T04:36:46.112Z,21.73
2022-08-08T04:37:19.110Z,21.75
2022-08-08T04:37:52.436Z,21.77
2022-08-08T04:38:25.356Z,21.81
2022-08-08T04:39:47.880Z,21.83
2022-08-08T04:40:06.337Z,21.82
2022-08-08T04:40:39.764Z,21.86
2022-08-08T04:41:25.251Z,21.86
2022-08-08T04:42:11.357Z,21.87
2022-08-08T04:42:56.929Z,21.78
2022-08-08T04:43:31.349Z,21.81
2022-08-08T04:44:18.595Z,21.81
2022-08-08T04:44:55.720Z,21.88
2022-08-08T04:45:28.124Z,21.93
2022-08-08T04:46:00.470Z,21.94
2022-08-08T04:46:33.066Z,21.89
2022-08-08T04:47:06.030Z,21.89
2022-08-08T04:47:46.318Z,21.92
2022-08-08T04:48:21.808Z,21.92
2022-08-08T04:48:54.473Z,21.86
2022-08-08T04:49:28.837Z,21.78
2022-08-08T04:50:04.915Z,21.83
2022-08-08T04:50:40.280Z,21.77
2022-08-08T04:51:23.581Z,21.70
2022-08-08T04:52:09.058Z,21.73
2022-08-08T04:52:44.773Z,21.63
2022-08-08T04:54:37.013Z,21.72
2022-08-08T04:54:39.316Z,21.62
2022-08-08T04:55:06.469Z,21.54
2022-08-08T04:55:55.131Z,21.60
2022-08-08T04:56:30.386Z,21.65
2022-08-08T04:57:02.361Z,21.59
2022-08-08T04:57:34.676Z,21.58
2022-08-08T04:58:11.044Z,21.64
2022-08-08T04:58:48.332Z,21.68
2022-08-08T04:59:24.172Z,21.64
2022-08-08T05:00:05.138Z,21.54
2022-08-08T05:00:37.974Z,21.53
2022-08-08T05:01:11.654Z,21.52
2022-08-08T05:01:48.215Z,21.57
2022-08-08T05:02:20.868Z,21.62
2022-08-08T05:03:01.136Z,21.59
2022-08-08T05:04:07.945Z,21.66
2022-08-08T05:04:30.426Z,21.61
2022-08-08T05:05:02.561Z,21.61
2022-08-08T05:05:44.483Z,21.63
2022-08-08T05:06:18.454Z,21.65
2022-08-08T05:06:58.769Z,21.68
2022-08-08T05:07:38.069Z,21.69
2022-08-08T05:08:15.570Z,21.69
2022-08-08T05:08:52.235Z,21.56
2022-08-08T05:09:24.599Z,21.47
2022-08-08T05:09:57.740Z,21.29
2022-08-08T05:10:31.742Z,21.18
2022-08-08T05:11:07.755Z,21.16
2022-08-08T05:11:41.518Z,21.14
2022-08-08T05:12:20.903Z,21.18
2022-08-08T05:13:00.014Z,21.31
2022-08-08T05:13:34.215Z,21.43
2022-08-08T05:14:08.289Z,21.53
2022-08-08T05:14:40.205Z,21.59
2022-08-08T05:15:13.970Z,21.63
2022-08-08T05:16:52.756Z,21.67
2022-08-08T05:16:54.356Z,21.67
2022-08-08T05:17:53.445Z,21.74
2022-08-08T05:18:23.248Z,21.76
2022-08-08T05:19:00.313Z,21.82
2022-08-08T05:20:11.689Z,21.89
2022-08-08T05:20:27.342Z,21.90
2022-08-08T05:21:00.595Z,21.94
2022-08-08T05:21:43.682Z,21.91
2022-08-08T05:22:34.112Z,21.85
2022-08-08T05:23:06.352Z,21.89
2022-08-08T05:23:41.073Z,21.86
2022-08-08T05:24:13.849Z,21.88
2022-08-08T05:24:49.792Z,21.91
2022-08-08T05:25:22.148Z,21.91
2022-08-08T05:26:00.083Z,21.91
2022-08-08T05:26:33.479Z,21.97
2022-08-08T05:27:06.427Z,21.97
2022-08-08T05:27:41.553Z,21.95
2022-08-08T05:28:16.409Z,21.89
2022-08-08T05:29:08.517Z,21.94
2022-08-08T05:29:43.503Z,21.87
2022-08-08T05:30:16.939Z,21.85
2022-08-08T05:31:08.708Z,21.72
2022-08-08T05:32:04.493Z,21.80
2022-08-08T05:32:39.895Z,21.85
2022-08-08T05:33:13.631Z,21.88
2022-08-08T05:33:49.521Z,21.95
2022-08-08T05:34:26.473Z,22.01
2022-08-08T05:35:04.837Z,22.03
2022-08-08T05:35:45.369Z,22.07
2022-08-08T05:36:25.637Z,22.01
2022-08-08T05:37:07.393Z,21.94
2022-08-08T05:37:55.663Z,21.96
2022-08-08T05:38:35.685Z,21.92
2022-08-08T05:39:10.360Z,22.01
2022-08-08T05:39:46.215Z,22.00
2022-08-08T05:40:21.493Z,21.97
2022-08-08T05:41:04.661Z,22.01
2022-08-08T05:41:54.962Z,22.06
2022-08-08T05:42:41.654Z,22.19
2022-08-08T05:43:39.894Z,22.37
2022-08-08T05:44:30.867Z,22.39
2022-08-08T05:45:10.364Z,22.31
2022-08-08T05:46:08.156Z,22.33
2022-08-08T05:46:41.532Z,22.34
2022-08-08T05:47:22.501Z,22.30
2022-08-08T05:48:00.437Z,22.33
2022-08-08T05:48:34.691Z,22.38
2022-08-08T05:49:11.354Z,22.50
2022-08-08T05:49:54.298Z,22.44
2022-08-08T05:50:33.656Z,22.41
2022-08-08T05:51:13.468Z,22.45
2022-08-08T05:51:49.726Z,22.51
2022-08-08T05:52:35.612Z,22.61
2022-08-08T05:53:54.290Z,22.56
2022-08-08T05:54:26.979Z,22.68
2022-08-08T05:54:55.776Z,22.64
2022-08-08T05:56:08.274Z,22.76
2022-08-08T05:56:28.661Z,22.84
2022-08-08T05:57:04.751Z,22.91
2022-08-08T05:58:03.988Z,22.89
2022-08-08T05:58:34.085Z,22.82
2022-08-08T05:59:15.655Z,22.79
2022-08-08T06:00:24.865Z,22.82
2022-08-08T06:01:03.214Z,22.87
2022-08-08T06:01:51.751Z,22.86
2022-08-08T06:02:52.047Z,22.87
2022-08-08T06:03:29.530Z,22.96
2022-08-08T06:04:07.917Z,23.04
2022-08-08T06:04:54.937Z,22.99
2022-08-08T06:05:35.354Z,23.02
2022-08-08T06:06:09.835Z,22.98
2022-08-08T06:06:42.483Z,23.01
2022-08-08T06:07:20.831Z,23.02
2022-08-08T06:08:02.921Z,23.06
2022-08-08T06:08:54.612Z,23.04
2022-08-08T06:09:58.448Z,23.12
2022-08-08T06:10:29.149Z,23.15
2022-08-08T06:11:02.313Z,23.15
2022-08-08T06:11:37.155Z,23.33
2022-08-08T06:12:30.017Z,23.45
2022-08-08T06:13:03.708Z,23.63
2022-08-08T06:13:46.920Z,23.60
2022-08-08T06:14:22.841Z,23.49
2022-08-08T06:14:57.852Z,23.49
2022-08-08T06:15:51.117Z,23.41
2022-08-08T06:16:27.568Z,23.46
2022-08-08T06:17:04.728Z,23.46
2022-08-08T06:17:51.182Z,23.39
2022-08-08T06:18:36.372Z,23.43
2022-08-08T06:19:12.211Z,23.48
2022-08-08T06:19:49.674Z,23.28
2022-08-08T06:20:21.874Z,23.25
2022-08-08T06:20:57.626Z,23.27
2022-08-08T06:21:48.977Z,23.29
2022-08-08T06:22:42.136Z,23.24
2022-08-08T06:23:15.817Z,23.36
2022-08-08T06:23:53.450Z,23.40
2022-08-08T06:24:36.091Z,23.44
2022-08-08T06:25:10.296Z,23.47
2022-08-08T06:26:39.058Z,23.51
2022-08-08T06:26:50.456Z,23.60
2022-08-08T06:27:38.829Z,23.64
2022-08-08T06:28:18.150Z,23.59
2022-08-08T06:29:02.359Z,23.63
2022-08-08T06:29:56.575Z,23.67
2022-08-08T06:30:35.035Z,23.72
2022-08-08T06:31:10.511Z,23.75
2022-08-08T06:31:52.298Z,23.75
2022-08-08T06:32:33.566Z,23.82
2022-08-08T06:33:10.318Z,23.80
2022-08-08T06:34:25.609Z,23.81
2022-08-08T06:36:03.798Z,23.90
2022-08-08T06:36:07.629Z,24.02
2022-08-08T06:36:53.970Z,24.15
2022-08-08T06:37:37.133Z,24.21
2022-08-08T06:38:14.630Z,24.29
2022-08-08T06:38:50.618Z,24.30
2022-08-08T06:39:25.248Z,24.30
2022-08-08T06:40:15.943Z,24.31
2022-08-08T06:40:54.156Z,24.31
2022-08-08T06:41:27.138Z,24.30
2022-08-08T06:42:09.406Z,24.27
2022-08-08T06:43:01.792Z,24.39
2022-08-08T06:43:37.175Z,24.50
2022-08-08T06:44:18.442Z,24.47
2022-08-08T06:44:56.986Z,24.54
2022-08-08T06:45:33.108Z,24.66
2022-08-08T06:46:09.177Z,24.68
2022-08-08T06:46:45.658Z,24.66
2022-08-08T06:47:22.865Z,24.71
2022-08-08T06:48:04.883Z,24.73
2022-08-08T06:48:39.482Z,24.74
2022-08-08T06:49:16.029Z,24.75
2022-08-08T06:49:54.935Z,24.84
2022-08-08T06:50:32.092Z,24.90
2022-08-08T06:51:07.836Z,24.88
2022-08-08T06:51:47.077Z,24.89
2022-08-08T06:52:27.727Z,24.87
2022-08-08T06:53:10.027Z,24.93
2022-08-08T06:53:56.439Z,25.02
2022-08-08T06:54:34.806Z,24.99
2022-08-08T06:55:08.689Z,24.88
2022-08-08T06:55:42.120Z,24.96
2022-08-08T06:56:16.603Z,24.98
2022-08-08T06:56:52.882Z,24.98
2022-08-08T06:57:29.208Z,25.06
2022-08-08T06:58:18.745Z,25.12
2022-08-08T06:58:51.364Z,25.02
2022-08-08T06:59:23.703Z,25.09
2022-08-08T07:00:12.473Z,25.10
2022-08-08T07:00:49.634Z,25.10
2022-08-08T07:02:17.520Z,25.22
2022-08-08T07:02:29.165Z,25.19
2022-08-08T07:03:08.684Z,25.25
2022-08-08T07:04:37.714Z,25.25
2022-08-08T07:04:56.307Z,25.30
2022-08-08T07:05:40.344Z,25.32
2022-08-08T07:06:17.275Z,25.32
2022-08-08T07:06:59.486Z,25.38
2022-08-08T07:07:51.702Z,25.37
2022-08-08T07:08:33.326Z,25.48
2022-08-08T07:09:17.801Z,25.51
2022-08-08T07:10:08.235Z,25.52
2022-08-08T07:10:51.258Z,25.32
2022-08-08T07:11:51.321Z,25.40
2022-08-08T07:12:38.557Z,25.41
2022-08-08T07:13:14.082Z,25.43
2022-08-08T07:14:00.350Z,25.39
2022-08-08T07:14:49.499Z,25.51
2022-08-08T07:16:04.863Z,25.59
2022-08-08T07:17:09.311Z,25.62
2022-08-08T07:18:01.472Z,25.68
2022-08-08T07:18:57.645Z,25.75
2022-08-08T07:19:56.067Z,25.89
2022-08-08T07:20:50.372Z,26.06
2022-08-08T07:21:31.201Z,26.03
2022-08-08T07:22:18.277Z,26.02
2022-08-08T07:23:16.349Z,26.05
2022-08-08T07:24:09.542Z,26.08
2022-08-08T07:24:48.604Z,26.08
2022-08-08T07:25:24.081Z,26.09
2022-08-08T07:26:05.179Z,26.12
2022-08-08T07:26:41.010Z,26.06
2022-08-08T07:27:16.585Z,26.10
2022-08-08T07:28:02.642Z,26.00
2022-08-08T07:28:40.537Z,26.02
2022-08-08T07:29:58.811Z,26.03
2022-08-08T07:30:13.733Z,26.05
2022-08-08T07:30:49.098Z,25.99
2022-08-08T07:31:22.925Z,25.95
2022-08-08T07:31:58.092Z,25.97
2022-08-08T07:32:32.097Z,26.03
2022-08-08T07:33:04.498Z,26.00
2022-08-08T07:33:58.911Z,25.95
2022-08-08T07:34:33.783Z,25.94
2022-08-08T07:35:08.665Z,25.87
2022-08-08T07:35:41.921Z,25.80
2022-08-08T07:36:17.221Z,25.80
2022-08-08T07:36:51.700Z,25.79
2022-08-08T07:37:26.164Z,25.78
2022-08-08T07:38:20.573Z,25.67
2022-08-08T07:38:59.436Z,25.67
2022-08-08T07:39:45.534Z,25.56
2022-08-08T07:40:29.829Z,25.62
2022-08-08T07:41:07.366Z,25.59
2022-08-08T07:42:03.784Z,25.58
2022-08-08T07:42:38.608Z,25.58
2022-08-08T07:43:12.914Z,25.60
2022-08-08T07:43:51.201Z,25.60
2022-08-08T07:44:36.953Z,25.62
2022-08-08T07:45:12.348Z,25.62
2022-08-08T07:46:05.386Z,25.54
2022-08-08T07:46:36.959Z,25.55
2022-08-08T07:47:11.936Z,25.65
2022-08-08T07:47:49.208Z,25.67
2022-08-08T07:48:25.187Z,25.69
2022-08-08T07:49:02.942Z,25.63
2022-08-08T07:49:46.165Z,25.61
2022-08-08T07:50:23.567Z,25.58
2022-08-08T07:50:58.869Z,25.54
2022-08-08T07:51:53.111Z,25.59
2022-08-08T07:52:27.233Z,25.63
2022-08-08T07:53:07.082Z,25.75
2022-08-08T07:54:02.734Z,25.78
2022-08-08T07:55:02.309Z,25.82
2022-08-08T07:55:37.471Z,25.93
2022-08-08T07:56:13.277Z,25.98
2022-08-08T07:57:17.334Z,26.07
2022-08-08T07:58:13.995Z,26.07
2022-08-08T07:58:50.048Z,25.85
2022-08-08T07:59:26.912Z,25.94
2022-08-08T08:00:16.436Z,26.02
2022-08-08T08:01:03.609Z,26.05
2022-08-08T08:02:33.358Z,25.96
2022-08-08T08:02:44.342Z,26.07
2022-08-08T08:03:41.458Z,26.15
2022-08-08T08:04:25.673Z,26.18
2022-08-08T08:05:01.253Z,26.08
2022-08-08T08:05:50.987Z,26.01
2022-08-08T08:06:28.523Z,26.13
2022-08-08T08:07:03.153Z,26.21
2022-08-08T08:07:38.877Z,26.18
2022-08-08T08:08:18.976Z,26.17
2022-08-08T08:09:06.948Z,26.20
2022-08-08T08:09:40.389Z,26.15
2022-08-08T08:10:18.161Z,26.14
2022-08-08T08:11:03.945Z,26.18
2022-08-08T08:11:52.482Z,26.02
2022-08-08T08:12:35.643Z,26.10
2022-08-08T08:13:42.579Z,26.14
2022-08-08T08:14:53.866Z,26.01
2022-08-08T08:15:31.913Z,25.88
2022-08-08T08:16:07.736Z,25.91
2022-08-08T08:16:48.787Z,25.88
2022-08-08T08:17:25.413Z,25.90
2022-08-08T08:18:14.269Z,26.03
2022-08-08T08:18:56.439Z,25.92
2022-08-08T08:19:45.731Z,26.00
2022-08-08T08:20:20.711Z,25.88
2022-08-08T08:20:54.294Z,25.82
2022-08-08T08:22:02.441Z,25.88
2022-08-08T08:22:40.715Z,25.92
2022-08-08T08:23:14.967Z,25.88
2022-08-08T08:23:51.072Z,25.90
2022-08-08T08:24:30.314Z,25.93
2022-08-08T08:25:07.652Z,25.92
2022-08-08T08:25:45.964Z,25.97
2022-08-08T08:26:28.530Z,25.99
2022-08-08T08:27:02.811Z,25.98
2022-08-08T08:27:36.579Z,25.84
2022-08-08T08:28:11.251Z,25.90
2022-08-08T08:28:53.790Z,25.90
2022-08-08T08:29:28.705Z,25.93
2022-08-08T08:30:01.900Z,25.91
2022-08-08T08:30:35.420Z,25.93
2022-08-08T08:31:07.759Z,26.00
2022-08-08T08:31:41.662Z,25.93
2022-08-08T08:32:31.816Z,25.94
2022-08-08T08:33:11.109Z,25.89
2022-08-08T08:33:44.502Z,25.97
2022-08-08T08:34:32.222Z,25.98
2022-08-08T08:35:06.671Z,26.03
2022-08-08T08:36:17.504Z,26.01
2022-08-08T08:36:32.230Z,26.01
2022-08-08T08:37:07.978Z,26.05
2022-08-08T08:38:13.105Z,26.03
2022-08-08T08:38:35.412Z,26.08
2022-08-08T08:39:17.465Z,26.16
2022-08-08T08:40:00.390Z,26.21
2022-08-08T08:40:35.248Z,26.20
2022-08-08T08:41:13.246Z,26.18
2022-08-08T08:41:51.340Z,26.17
2022-08-08T08:42:32.128Z,26.25
2022-08-08T08:43:16.795Z,26.27
2022-08-08T08:43:50.555Z,26.32
2022-08-08T08:44:29.042Z,26.30
2022-08-08T08:45:21.349Z,26.30
2022-08-08T08:45:57.343Z,26.31
2022-08-08T08:46:30.959Z,26.23
2022-08-08T08:47:06.634Z,26.34
2022-08-08T08:47:44.820Z,26.30
2022-08-08T08:48:20.045Z,26.22
2022-08-08T08:48:53.626Z,26.23
2022-08-08T08:49:30.647Z,26.26
2022-08-08T08:50:06.862Z,26.24
2022-08-08T08:50:52.158Z,26.33
2022-08-08T08:51:27.207Z,26.32
2022-08-08T08:52:03.233Z,26.34
2022-08-08T08:52:57.421Z,26.33
2022-08-08T08:53:56.299Z,26.29
2022-08-08T08:54:35.201Z,26.31
2022-08-08T08:55:12.279Z,26.34
2022-08-08T08:55:45.792Z,26.35
2022-08-08T08:56:25.123Z,26.35
2022-08-08T08:57:01.573Z,26.38
2022-08-08T08:57:34.609Z,26.40
2022-08-08T08:58:09.477Z,26.36
2022-08-08T08:58:49.848Z,26.39
2022-08-08T08:59:57.613Z,26.37
2022-08-08T09:00:20.324Z,26.44
2022-08-08T09:01:08.347Z,26.45
2022-08-08T09:01:45.603Z,26.49
2022-08-08T09:02:24.255Z,26.43
2022-08-08T09:03:00.066Z,26.40
2022-08-08T09:03:46.984Z,26.42
2022-08-08T09:04:31.402Z,26.40
2022-08-08T09:05:28.845Z,26.33
2022-08-08T09:06:05.581Z,26.42
2022-08-08T09:06:59.394Z,26.44
2022-08-08T09:07:39.488Z,26.48
2022-08-08T09:08:27.501Z,26.45
2022-08-08T09:09:18.863Z,26.41
2022-08-08T09:09:59.919Z,26.43
2022-08-08T09:10:39.509Z,26.36
2022-08-08T09:11:16.178Z,26.22
2022-08-08T09:12:01.243Z,26.20
2022-08-08T09:12:35.820Z,26.24
2022-08-08T09:13:08.731Z,26.25
2022-08-08T09:13:43.254Z,26.33
2022-08-08T09:14:25.961Z,26.32
2022-08-08T09:14:58.803Z,26.35
2022-08-08T09:15:37.515Z,26.39
2022-08-08T09:16:16.185Z,26.35
2022-08-08T09:16:51.561Z,26.34
2022-08-08T09:17:40.810Z,26.37
2022-08-08T09:18:18.526Z,26.40
2022-08-08T09:18:54.195Z,26.33
2022-08-08T09:21:54.444Z,26.41
2022-08-08T09:21:57.051Z,26.49
2022-08-08T09:22:02.629Z,26.44
2022-08-08T09:22:06.963Z,26.53
2022-08-08T09:22:40.128Z,26.36
2022-08-08T09:23:17.871Z,26.39
2022-08-08T09:23:58.431Z,26.44
2022-08-08T09:24:33.319Z,26.50
2022-08-08T09:25:07.650Z,26.43
2022-08-08T09:26:00.661Z,26.40
2022-08-08T09:26:54.019Z,26.26
2022-08-08T09:27:55.787Z,26.42
2022-08-08T09:28:35.470Z,26.49
2022-08-08T09:29:22.619Z,26.52
2022-08-08T09:30:09.891Z,26.54
2022-08-08T09:30:43.613Z,26.57
2022-08-08T09:31:42.350Z,26.55
2022-08-08T09:32:37.489Z,26.51
2022-08-08T09:34:15.276Z,26.47
2022-08-08T09:34:31.473Z,26.47
2022-08-08T09:35:08.281Z,26.21
2022-08-08T09:35:48.638Z,26.11
2022-08-08T09:36:23.019Z,26.16
2022-08-08T09:37:34.109Z,26.23
2022-08-08T09:38:17.566Z,26.30
2022-08-08T09:38:59.287Z,26.40
2022-08-08T09:39:41.238Z,26.45
2022-08-08T09:40:40.712Z,26.36
2022-08-08T09:41:18.134Z,26.26
2022-08-08T09:42:23.198Z,26.31
2022-08-08T09:43:16.835Z,26.36
2022-08-08T09:44:05.087Z,26.32
2022-08-08T09:45:54.123Z,26.32
2022-08-08T09:46:16.874Z,26.35
2022-08-08T09:47:05.108Z,26.41
2022-08-08T09:48:12.625Z,26.37
2022-08-08T09:48:38.980Z,26.21
2022-08-08T09:49:42.983Z,26.32
2022-08-08T09:50:13.711Z,26.35
2022-08-08T09:50:50.380Z,26.33
2022-08-08T09:51:30.536Z,26.28
2022-08-08T09:52:53.966Z,26.28
2022-08-08T09:53:24.735Z,26.34
2022-08-08T09:54:13.907Z,26.33
2022-08-08T09:54:50.933Z,26.24
2022-08-08T09:55:51.512Z,26.19
2022-08-08T09:56:25.136Z,26.24
2022-08-08T09:57:02.543Z,26.29
2022-08-08T09:57:45.713Z,26.30
2022-08-08T09:58:33.179Z,26.30
2022-08-08T09:59:50.378Z,26.24
2022-08-08T10:01:15.000Z,26.23